Time;durP1;ratioP1;P1;durP2;ratioP2;P2;SDS_P1;SDS_P2;PMS_P1;PMS_P2;Temp;Humidity;BMP_temperature;BMP_pressure;BME280_temperature;BME280_humidity;BME280_pressure;Samples;Min_cycle;Max_cycle;Signal;HPM_P1;HPM_P2
2021/08/08 00:01:35;;;;;;;0.57;0.43;;;;;;;;;;5085169;28;20032;-80
2021/08/08 00:04:01;;;;;;;0.60;0.60;;;;;;;;;;5086595;28;20104;-80
2021/08/08 00:06:28;;;;;;;0.50;0.50;;;;;;;;;;5083661;28;20120;-83
2021/08/08 00:08:54;;;;;;;0.40;0.40;;;;;;;;;;5085551;28;20088;-80
2021/08/08 00:11:20;;;;;;;0.22;0.22;;;;;;;;;;5085428;28;20029;-81
2021/08/08 00:13:46;;;;;;;0.50;0.47;;;;;;;;;;5083533;28;20021;-80
2021/08/08 00:16:12;;;;;;;0.52;0.52;;;;;;;;;;5090082;28;20024;-81
2021/08/08 00:18:38;;;;;;;0.40;0.40;;;;;;;;;;5098421;28;20020;-80
2021/08/08 00:21:04;;;;;;;0.40;0.38;;;;;;;;;;5085200;28;20405;-80
2021/08/08 00:23:30;;;;;;;0.95;0.40;;;;;;;;;;5081424;28;20030;-80
2021/08/08 00:25:56;;;;;;;0.55;0.30;;;;;;;;;;5071255;28;20514;-80
2021/08/08 00:28:23;;;;;;;0.57;0.43;;;;;;;;;;5088076;28;20048;-81
2021/08/08 00:30:49;;;;;;;0.47;0.43;;;;;;;;;;5086198;28;20025;-82
2021/08/08 00:33:15;;;;;;;0.20;0.20;;;;;;;;;;5089622;28;20071;-82
2021/08/08 00:35:42;;;;;;;0.57;0.50;;;;;;;;;;5089970;28;20025;-82
2021/08/08 00:38:09;;;;;;;1.27;0.52;;;;;;;;;;5089684;28;20027;-81
2021/08/08 00:40:36;;;;;;;0.40;0.40;;;;;;;;;;5088447;28;20094;-81
2021/08/08 00:43:02;;;;;;;0.45;0.30;;;;;;;;;;5088339;28;20043;-81
2021/08/08 00:45:28;;;;;;;1.30;0.40;;;;;;;;;;5074193;28;20086;-81
2021/08/08 00:47:54;;;;;;;0.73;0.73;;;;;;;;;;5093199;28;20024;-81
2021/08/08 00:50:20;;;;;;;0.40;0.40;;;;;;;;;;5107863;28;20074;-81
2021/08/08 00:52:46;;;;;;;0.40;0.40;;;;;;;;;;5105361;28;20020;-81
2021/08/08 00:55:12;;;;;;;0.50;0.50;;;;;;;;;;5096398;28;20035;-80
2021/08/08 00:57:38;;;;;;;0.43;0.43;;;;;;;;;;5087563;28;20020;-81
2021/08/08 01:00:05;;;;;;;0.40;0.40;;;;;;;;;;5088455;28;20029;-80
2021/08/08 01:02:35;;;;;;;0.73;0.32;;;;;;;;;;5089932;28;20039;-81
2021/08/08 01:05:07;;;;;;;0.57;0.57;;;;;;;;;;5090069;28;20100;-81
2021/08/08 01:07:50;;;;;;;0.28;0.20;;;;;;;;;;5093782;28;20032;-81
2021/08/08 01:10:18;;;;;;;0.57;0.57;;;;;;;;;;5092656;28;20013;-81
2021/08/08 01:12:45;;;;;;;0.30;0.30;;;;;;;;;;5088130;28;20080;-82
2021/08/08 01:15:11;;;;;;;0.60;0.60;;;;;;;;;;5089823;28;20032;-80
2021/08/08 01:17:38;;;;;;;0.40;0.40;;;;;;;;;;5100166;28;20012;-81
2021/08/08 01:20:06;;;;;;;1.95;0.35;;;;;;;;;;5109871;28;20027;-81
2021/08/08 01:22:33;;;;;;;2.00;0.50;;;;;;;;;;5110490;28;20032;-81
2021/08/08 01:24:59;;;;;;;0.60;0.60;;;;;;;;;;5111189;28;20438;-81
2021/08/08 01:27:26;;;;;;;1.75;0.40;;;;;;;;;;5090065;28;20040;-81
2021/08/08 01:29:53;;;;;;;1.05;0.40;;;;;;;;;;5089438;28;20028;-81
2021/08/08 01:32:19;;;;;;;0.50;0.50;;;;;;;;;;5090096;28;20062;-82
2021/08/08 01:34:49;;;;;;;0.75;0.38;;;;;;;;;;5090718;28;20012;-81
2021/08/08 01:37:19;;;;;;;0.40;0.40;;;;;;;;;;5090327;28;20101;-81
2021/08/08 01:39:46;;;;;;;0.40;0.40;;;;;;;;;;5090687;28;20026;-81
2021/08/08 01:42:13;;;;;;;0.82;0.43;;;;;;;;;;5088317;28;20028;-81
2021/08/08 01:44:40;;;;;;;0.70;0.50;;;;;;;;;;5089200;28;20028;-81
2021/08/08 01:47:07;;;;;;;0.30;0.28;;;;;;;;;;5099448;28;20020;-81
2021/08/08 01:49:34;;;;;;;0.20;0.20;;;;;;;;;;5102655;28;20028;-82
2021/08/08 01:52:00;;;;;;;0.50;0.45;;;;;;;;;;5111011;28;20020;-81
2021/08/08 01:54:27;;;;;;;0.60;0.60;;;;;;;;;;5106350;28;20049;-82
2021/08/08 01:56:53;;;;;;;0.52;0.50;;;;;;;;;;5092883;28;20021;-81
2021/08/08 01:59:19;;;;;;;0.60;0.60;;;;;;;;;;5096639;28;20020;-81
2021/08/08 02:01:45;;;;;;;0.82;0.40;;;;;;;;;;5091716;28;20084;-81
2021/08/08 02:04:29;;;;;;;0.52;0.52;;;;;;;;;;5090524;28;20028;-81
2021/08/08 02:06:55;;;;;;;0.45;0.30;;;;;;;;;;5071293;28;20021;-82
2021/08/08 02:09:21;;;;;;;0.52;0.40;;;;;;;;;;5086682;28;20045;-82
2021/08/08 02:11:47;;;;;;;0.47;0.47;;;;;;;;;;5088897;28;20047;-81
2021/08/08 02:14:14;;;;;;;0.50;0.50;;;;;;;;;;5089944;28;20041;-81
2021/08/08 02:16:40;;;;;;;2.22;0.43;;;;;;;;;;5097307;28;20024;-81
2021/08/08 02:19:07;;;;;;;0.52;0.50;;;;;;;;;;5100983;28;20469;-81
2021/08/08 02:21:33;;;;;;;0.55;0.43;;;;;;;;;;5108206;28;20499;-81
2021/08/08 02:23:59;;;;;;;0.45;0.45;;;;;;;;;;5109656;28;20034;-81
2021/08/08 02:26:25;;;;;;;1.48;0.40;;;;;;;;;;5096001;28;20033;-81
2021/08/08 02:28:51;;;;;;;1.77;0.70;;;;;;;;;;5088692;28;20027;-80
2021/08/08 02:31:18;;;;;;;1.98;0.70;;;;;;;;;;5088436;28;20024;-81
2021/08/08 02:33:45;;;;;;;0.40;0.30;;;;;;;;;;5086711;28;20040;-80
2021/08/08 02:36:11;;;;;;;1.92;0.52;;;;;;;;;;5089542;28;20094;-81
2021/08/08 02:38:37;;;;;;;0.50;0.50;;;;;;;;;;5088025;28;20028;-81
2021/08/08 02:41:03;;;;;;;0.70;0.70;;;;;;;;;;5089875;28;20024;-81
2021/08/08 02:43:36;;;;;;;1.92;0.73;;;;;;;;;;5087371;28;20037;-82
2021/08/08 02:46:02;;;;;;;0.50;0.50;;;;;;;;;;5090859;28;20027;-82
2021/08/08 02:48:28;;;;;;;0.75;0.60;;;;;;;;;;5101043;28;20031;-82
2021/08/08 02:50:54;;;;;;;0.68;0.65;;;;;;;;;;5111945;28;20024;-82
2021/08/08 02:53:20;;;;;;;0.88;0.73;;;;;;;;;;5116073;28;20012;-80
2021/08/08 02:55:46;;;;;;;0.50;0.50;;;;;;;;;;5097317;28;20020;-80
2021/08/08 02:58:12;;;;;;;2.40;0.60;;;;;;;;;;5079018;28;20039;-80
2021/08/08 03:00:38;;;;;;;0.47;0.47;;;;;;;;;;5078275;28;20035;-80
2021/08/08 03:03:06;;;;;;;0.50;0.50;;;;;;;;;;5080973;28;20127;-80
2021/08/08 03:05:32;;;;;;;0.28;0.25;;;;;;;;;;5083500;28;20055;-81
2021/08/08 03:07:58;;;;;;;0.93;0.50;;;;;;;;;;5085143;28;20040;-81
2021/08/08 03:10:24;;;;;;;0.52;0.40;;;;;;;;;;5084316;28;20084;-81
2021/08/08 03:12:50;;;;;;;0.50;0.40;;;;;;;;;;5086085;28;20054;-81
2021/08/08 03:15:16;;;;;;;1.52;0.70;;;;;;;;;;5086088;28;20036;-80
2021/08/08 03:17:43;;;;;;;0.25;0.25;;;;;;;;;;5094357;28;20035;-82
2021/08/08 03:20:09;;;;;;;0.70;0.70;;;;;;;;;;5104256;28;20032;-81
2021/08/08 03:22:35;;;;;;;1.65;0.60;;;;;;;;;;5109092;28;20111;-81
2021/08/08 03:25:01;;;;;;;0.52;0.47;;;;;;;;;;5107705;28;20047;-81
2021/08/08 03:27:27;;;;;;;0.50;0.50;;;;;;;;;;5103173;28;20108;-81
2021/08/08 03:29:53;;;;;;;0.30;0.30;;;;;;;;;;5086489;28;20025;-81
2021/08/08 03:32:19;;;;;;;0.82;0.55;;;;;;;;;;5086896;28;20028;-81
2021/08/08 03:34:45;;;;;;;0.35;0.35;;;;;;;;;;5088898;28;20052;-82
2021/08/08 03:37:12;;;;;;;0.30;0.30;;;;;;;;;;5088369;28;20020;-81
2021/08/08 03:39:38;;;;;;;1.00;0.47;;;;;;;;;;5086449;28;20025;-81
2021/08/08 03:42:05;;;;;;;0.50;0.50;;;;;;;;;;5088491;28;20095;-80
2021/08/08 03:44:31;;;;;;;0.52;0.52;;;;;;;;;;5088884;28;20020;-80
2021/08/08 03:46:57;;;;;;;0.40;0.30;;;;;;;;;;5098310;28;20028;-80
2021/08/08 03:49:23;;;;;;;0.60;0.60;;;;;;;;;;5094808;28;20067;-80
2021/08/08 03:51:49;;;;;;;0.60;0.60;;;;;;;;;;5107410;28;20032;-81
2021/08/08 03:54:15;;;;;;;0.93;0.47;;;;;;;;;;5107362;28;20020;-81
2021/08/08 03:56:42;;;;;;;0.50;0.50;;;;;;;;;;5108751;28;20020;-80
2021/08/08 03:59:09;;;;;;;0.60;0.60;;;;;;;;;;5097846;28;20021;-81
2021/08/08 04:01:35;;;;;;;0.93;0.60;;;;;;;;;;5088030;28;20252;-81
2021/08/08 04:04:02;;;;;;;0.70;0.50;;;;;;;;;;5087489;28;20044;-81
2021/08/08 04:06:28;;;;;;;0.28;0.28;;;;;;;;;;5088416;28;20084;-81
2021/08/08 04:08:54;;;;;;;0.50;0.50;;;;;;;;;;5089014;28;20036;-80
2021/08/08 04:11:20;;;;;;;1.08;0.40;;;;;;;;;;5088897;28;20024;-81
2021/08/08 04:13:46;;;;;;;0.55;0.55;;;;;;;;;;5088507;28;20069;-81
2021/08/08 04:16:12;;;;;;;0.60;0.28;;;;;;;;;;5093508;28;20034;-81
2021/08/08 04:18:39;;;;;;;0.30;0.30;;;;;;;;;;5094678;28;20051;-82
2021/08/08 04:21:05;;;;;;;0.40;0.40;;;;;;;;;;5068369;28;20037;-81
2021/08/08 04:23:31;;;;;;;0.60;0.55;;;;;;;;;;5069713;28;20016;-81
2021/08/08 04:25:57;;;;;;;1.40;0.40;;;;;;;;;;5073645;28;20017;-80
2021/08/08 04:28:23;;;;;;;1.00;0.60;;;;;;;;;;5073966;28;20021;-82
2021/08/08 04:30:49;;;;;;;0.52;0.52;;;;;;;;;;5070177;28;20101;-82
2021/08/08 04:33:16;;;;;;;0.40;0.40;;;;;;;;;;5085123;22;20040;-82
2021/08/08 04:35:42;;;;;;;1.17;0.55;;;;;;;;;;5083572;28;20117;-83
2021/08/08 04:38:08;;;;;;;0.40;0.40;;;;;;;;;;5083246;28;20020;-82
2021/08/08 04:40:34;;;;;;;0.50;0.50;;;;;;;;;;5086121;28;20069;-83
2021/08/08 04:43:00;;;;;;;0.50;0.50;;;;;;;;;;5084696;28;20028;-83
2021/08/08 04:45:26;;;;;;;0.75;0.75;;;;;;;;;;5083578;28;20012;-83
2021/08/08 04:47:53;;;;;;;2.47;0.68;;;;;;;;;;5082347;28;20043;-84
2021/08/08 04:50:20;;;;;;;0.80;0.40;;;;;;;;;;5100926;28;20035;-84
2021/08/08 04:52:47;;;;;;;0.65;0.40;;;;;;;;;;5085887;28;20017;-84
2021/08/08 04:55:14;;;;;;;0.40;0.40;;;;;;;;;;5086815;28;20428;-84
2021/08/08 04:57:40;;;;;;;0.30;0.30;;;;;;;;;;5085184;28;20029;-84
2021/08/08 05:00:07;;;;;;;0.50;0.50;;;;;;;;;;5084523;28;20020;-85
2021/08/08 05:02:33;;;;;;;0.40;0.40;;;;;;;;;;5085445;28;20052;-84
2021/08/08 05:04:59;;;;;;;0.52;0.50;;;;;;;;;;5085885;28;20134;-85
2021/08/08 05:07:25;;;;;;;0.80;0.40;;;;;;;;;;5084836;28;20028;-85
2021/08/08 05:09:51;;;;;;;0.40;0.40;;;;;;;;;;5085559;28;20035;-85
2021/08/08 05:12:18;;;;;;;0.38;0.38;;;;;;;;;;5085771;28;20031;-84
2021/08/08 05:14:44;;;;;;;0.43;0.40;;;;;;;;;;5086053;28;20040;-85
2021/08/08 05:17:10;;;;;;;0.32;0.32;;;;;;;;;;5095149;28;20016;-84
2021/08/08 05:19:36;;;;;;;0.40;0.40;;;;;;;;;;5091290;28;20021;-84
2021/08/08 05:22:02;;;;;;;0.50;0.50;;;;;;;;;;5085545;28;20029;-83
2021/08/08 05:24:28;;;;;;;0.40;0.40;;;;;;;;;;5086364;28;20129;-86
2021/08/08 05:26:56;;;;;;;0.45;0.35;;;;;;;;;;5084547;28;20052;-82
2021/08/08 05:29:23;;;;;;;0.32;0.30;;;;;;;;;;5084727;28;20028;-84
2021/08/08 05:31:49;;;;;;;0.63;0.50;;;;;;;;;;5086254;28;20346;-83
2021/08/08 05:34:15;;;;;;;0.43;0.43;;;;;;;;;;5086160;28;20249;-83
2021/08/08 05:36:41;;;;;;;0.98;0.32;;;;;;;;;;5090583;28;20079;-83
2021/08/08 05:39:07;;;;;;;0.47;0.30;;;;;;;;;;5088821;28;20286;-83
2021/08/08 05:41:33;;;;;;;0.68;0.50;;;;;;;;;;5085573;28;20032;-83
2021/08/08 05:43:59;;;;;;;0.30;0.30;;;;;;;;;;5085145;28;20063;-85
2021/08/08 05:46:25;;;;;;;0.30;0.30;;;;;;;;;;5084525;28;20032;-84
2021/08/08 05:48:51;;;;;;;0.60;0.50;;;;;;;;;;5101887;28;20028;-83
2021/08/08 05:51:17;;;;;;;0.50;0.50;;;;;;;;;;5106957;28;20028;-84
2021/08/08 05:53:43;;;;;;;0.63;0.45;;;;;;;;;;5092387;28;20017;-83
2021/08/08 05:56:09;;;;;;;0.30;0.30;;;;;;;;;;5088264;28;20020;-84
2021/08/08 05:58:35;;;;;;;0.25;0.25;;;;;;;;;;5094963;28;20029;-83
2021/08/08 06:01:02;;;;;;;0.40;0.30;;;;;;;;;;5096438;28;20028;-85
2021/08/08 06:03:28;;;;;;;0.43;0.43;;;;;;;;;;5094963;28;20027;-83
2021/08/08 06:05:54;;;;;;;0.63;0.30;;;;;;;;;;5094612;28;20033;-83
2021/08/08 06:08:20;;;;;;;0.45;0.45;;;;;;;;;;5095180;28;20028;-82
2021/08/08 06:10:46;;;;;;;0.57;0.32;;;;;;;;;;5094231;28;20032;-84
2021/08/08 06:13:12;;;;;;;0.38;0.38;;;;;;;;;;5087650;28;20021;-83
2021/08/08 06:15:38;;;;;;;0.30;0.30;;;;;;;;;;5088088;28;20039;-83
2021/08/08 06:18:04;;;;;;;0.63;0.52;;;;;;;;;;5086892;28;20092;-84
2021/08/08 06:20:31;;;;;;;0.57;0.57;;;;;;;;;;5106687;28;20110;-84
2021/08/08 06:22:57;;;;;;;0.30;0.30;;;;;;;;;;5104852;28;20438;-84
2021/08/08 06:25:23;;;;;;;0.30;0.30;;;;;;;;;;5086802;28;20032;-84
2021/08/08 06:27:49;;;;;;;0.40;0.40;;;;;;;;;;5085511;28;20077;-83
2021/08/08 06:30:15;;;;;;;0.45;0.45;;;;;;;;;;5083847;28;20090;-84
2021/08/08 06:32:41;;;;;;;0.55;0.40;;;;;;;;;;5084762;28;20031;-84
2021/08/08 06:35:07;;;;;;;0.30;0.30;;;;;;;;;;5085131;28;20028;-83
2021/08/08 06:37:33;;;;;;;0.52;0.38;;;;;;;;;;5083373;28;20082;-83
2021/08/08 06:40:00;;;;;;;0.35;0.30;;;;;;;;;;5091550;28;20033;-82
2021/08/08 06:42:26;;;;;;;0.40;0.40;;;;;;;;;;5093113;28;20068;-82
2021/08/08 06:44:52;;;;;;;0.30;0.30;;;;;;;;;;5090130;28;20025;-83
2021/08/08 06:47:18;;;;;;;0.38;0.38;;;;;;;;;;5096653;28;20063;-83
2021/08/08 06:49:44;;;;;;;1.00;0.45;;;;;;;;;;5089419;28;20077;-84
2021/08/08 06:52:10;;;;;;;0.77;0.60;;;;;;;;;;5087236;28;20047;-83
2021/08/08 06:54:36;;;;;;;0.70;0.30;;;;;;;;;;5087087;28;20024;-83
2021/08/08 06:57:02;;;;;;;0.43;0.28;;;;;;;;;;5089710;28;20035;-83
2021/08/08 06:59:31;;;;;;;0.52;0.43;;;;;;;;;;5091013;28;20025;-84
2021/08/08 07:01:57;;;;;;;0.73;0.35;;;;;;;;;;5087915;28;20028;-83
2021/08/08 07:04:24;;;;;;;0.32;0.30;;;;;;;;;;5086022;28;20058;-85
2021/08/08 07:06:51;;;;;;;0.75;0.52;;;;;;;;;;5084753;28;20021;-84
2021/08/08 07:09:17;;;;;;;0.40;0.40;;;;;;;;;;5090981;28;20013;-84
2021/08/08 07:11:43;;;;;;;0.45;0.30;;;;;;;;;;5096483;28;20016;-84
2021/08/08 07:14:09;;;;;;;0.40;0.40;;;;;;;;;;5085820;28;20009;-84
2021/08/08 07:16:35;;;;;;;1.00;0.60;;;;;;;;;;5083080;28;20032;-84
2021/08/08 07:19:01;;;;;;;0.75;0.60;;;;;;;;;;5091568;28;20025;-84
2021/08/08 07:21:27;;;;;;;0.93;0.30;;;;;;;;;;5082754;28;20135;-85
2021/08/08 07:23:53;;;;;;;0.60;0.60;;;;;;;;;;5085703;28;20036;-84
2021/08/08 07:26:19;;;;;;;0.60;0.57;;;;;;;;;;5073264;28;20411;-83
2021/08/08 07:28:46;;;;;;;0.55;0.40;;;;;;;;;;5062296;28;20060;-83
2021/08/08 07:31:12;;;;;;;0.50;0.50;;;;;;;;;;5065794;28;20045;-84
2021/08/08 07:33:38;;;;;;;0.68;0.40;;;;;;;;;;5063199;28;20037;-83
2021/08/08 07:36:04;;;;;;;1.90;0.70;;;;;;;;;;5064033;28;20033;-83
2021/08/08 07:38:30;;;;;;;1.15;0.35;;;;;;;;;;5064442;28;20219;-83
2021/08/08 07:40:56;;;;;;;0.88;0.40;;;;;;;;;;5062274;28;20021;-82
2021/08/08 07:43:22;;;;;;;0.82;0.50;;;;;;;;;;5061188;28;20028;-83
2021/08/08 07:45:48;;;;;;;0.43;0.43;;;;;;;;;;5062945;28;20037;-84
2021/08/08 07:48:14;;;;;;;0.57;0.50;;;;;;;;;;5092702;28;20032;-85
2021/08/08 07:50:40;;;;;;;0.40;0.40;;;;;;;;;;5103942;28;20028;-83
2021/08/08 07:53:07;;;;;;;0.60;0.60;;;;;;;;;;5104760;28;20615;-84
2021/08/08 07:55:33;;;;;;;0.75;0.47;;;;;;;;;;5105194;28;20024;-84
2021/08/08 07:57:59;;;;;;;0.50;0.50;;;;;;;;;;5100585;28;20023;-83
2021/08/08 08:00:25;;;;;;;0.32;0.32;;;;;;;;;;5103160;28;20358;-84
2021/08/08 08:02:52;;;;;;;0.77;0.32;;;;;;;;;;5101395;28;20105;-84
2021/08/08 08:05:19;;;;;;;1.17;0.57;;;;;;;;;;5100694;28;20024;-84
2021/08/08 08:07:46;;;;;;;0.50;0.50;;;;;;;;;;5107376;28;20158;-83
2021/08/08 08:10:12;;;;;;;0.98;0.40;;;;;;;;;;5106566;28;20031;-84
2021/08/08 08:12:39;;;;;;;0.85;0.50;;;;;;;;;;5107512;28;20149;-83
2021/08/08 08:15:05;;;;;;;0.45;0.40;;;;;;;;;;5109002;28;20067;-84
2021/08/08 08:17:31;;;;;;;0.60;0.52;;;;;;;;;;5086492;28;20044;-85
2021/08/08 08:19:57;;;;;;;1.25;0.55;;;;;;;;;;5084289;28;20021;-85
2021/08/08 08:22:23;;;;;;;0.63;0.50;;;;;;;;;;5085925;28;20032;-85
2021/08/08 08:24:49;;;;;;;0.80;0.80;;;;;;;;;;5085609;28;20032;-85
2021/08/08 08:27:15;;;;;;;1.52;0.68;;;;;;;;;;5084585;28;20029;-84
2021/08/08 08:29:41;;;;;;;2.10;0.50;;;;;;;;;;5088111;28;20528;-85
2021/08/08 08:32:08;;;;;;;1.63;0.68;;;;;;;;;;5085481;28;20035;-84
2021/08/08 08:34:34;;;;;;;1.10;0.73;;;;;;;;;;5085709;28;20058;-84
2021/08/08 08:37:00;;;;;;;0.55;0.55;;;;;;;;;;5086011;28;20073;-84
2021/08/08 08:39:26;;;;;;;0.70;0.50;;;;;;;;;;5067137;28;20112;-84
2021/08/08 08:41:53;;;;;;;0.47;0.40;;;;;;;;;;5065076;28;20470;-85
2021/08/08 08:44:20;;;;;;;0.63;0.60;;;;;;;;;;5068195;28;20033;-84
2021/08/08 08:46:47;;;;;;;0.95;0.73;;;;;;;;;;5082389;28;20030;-84
2021/08/08 08:49:13;;;;;;;1.27;0.63;;;;;;;;;;5083716;28;20136;-85
2021/08/08 08:51:45;;;;;;;0.43;0.43;;;;;;;;;;5085037;28;20330;-84
2021/08/08 08:54:12;;;;;;;1.38;0.50;;;;;;;;;;5084603;28;20031;-84
2021/08/08 08:56:40;;;;;;;0.90;0.85;;;;;;;;;;5085168;28;20120;-84
2021/08/08 08:59:06;;;;;;;1.98;0.90;;;;;;;;;;5084867;28;20481;-84
2021/08/08 09:01:33;;;;;;;1.27;0.82;;;;;;;;;;5085521;28;20043;-85
2021/08/08 09:03:59;;;;;;;2.17;0.88;;;;;;;;;;5086328;28;20088;-84
2021/08/08 09:06:25;;;;;;;1.67;0.50;;;;;;;;;;5086732;28;20028;-84
2021/08/08 09:08:51;;;;;;;0.70;0.70;;;;;;;;;;5085067;28;20020;-84
2021/08/08 09:11:17;;;;;;;0.65;0.43;;;;;;;;;;5088306;28;20032;-84
2021/08/08 09:13:48;;;;;;;1.40;0.50;;;;;;;;;;5086068;28;20149;-85
2021/08/08 09:16:14;;;;;;;2.05;0.75;;;;;;;;;;5086447;28;20024;-85
2021/08/08 09:18:48;;;;;;;0.95;0.80;;;;;;;;;;5097347;28;20032;-83
2021/08/08 09:21:14;;;;;;;0.73;0.45;;;;;;;;;;5066560;28;20017;-85
2021/08/08 09:23:40;;;;;;;4.40;0.73;;;;;;;;;;5064250;28;20436;-84
2021/08/08 09:26:06;;;;;;;1.30;0.50;;;;;;;;;;5063152;28;20400;-84
2021/08/08 09:28:32;;;;;;;0.47;0.47;;;;;;;;;;5064920;28;20120;-84
2021/08/08 09:30:59;;;;;;;0.85;0.65;;;;;;;;;;5062199;28;20029;-84
2021/08/08 09:33:26;;;;;;;0.40;0.40;;;;;;;;;;5063101;28;20021;-84
2021/08/08 09:35:53;;;;;;;1.92;0.68;;;;;;;;;;5067014;28;20024;-84
2021/08/08 09:38:20;;;;;;;1.08;0.88;;;;;;;;;;5077559;28;20063;-84
2021/08/08 09:40:56;;;;;;;0.52;0.35;;;;;;;;;;5074191;28;20036;-84
2021/08/08 09:43:26;;;;;;;2.65;0.57;;;;;;;;;;5084966;28;20534;-83
2021/08/08 09:45:52;;;;;;;2.75;0.55;;;;;;;;;;5093500;28;20012;-85
2021/08/08 09:48:22;;;;;;;1.70;0.57;;;;;;;;;;5094622;28;20108;-83
2021/08/08 09:50:50;;;;;;;0.75;0.50;;;;;;;;;;5083455;28;20307;-83
2021/08/08 09:53:21;;;;;;;0.73;0.50;;;;;;;;;;5081112;28;20035;-84
2021/08/08 09:55:47;;;;;;;1.77;0.60;;;;;;;;;;5094366;28;20008;-84
2021/08/08 09:58:20;;;;;;;0.98;0.50;;;;;;;;;;5084482;28;20021;-83
2021/08/08 10:01:22;;;;;;;0.63;0.43;;;;;;;;;;5090285;28;20105;-85
2021/08/08 10:03:48;;;;;;;2.58;0.85;;;;;;;;;;5070551;28;20037;-84
2021/08/08 10:06:18;;;;;;;1.63;0.80;;;;;;;;;;5065860;28;20091;-84
2021/08/08 10:08:47;;;;;;;1.00;0.52;;;;;;;;;;5064262;28;20017;-85
2021/08/08 10:11:13;;;;;;;3.22;0.77;;;;;;;;;;5074112;28;20028;-84
2021/08/08 10:13:53;;;;;;;0.70;0.50;;;;;;;;;;5088843;28;20032;-85
2021/08/08 10:16:20;;;;;;;0.50;0.45;;;;;;;;;;5092787;28;20031;-84
2021/08/08 10:18:51;;;;;;;1.10;0.57;;;;;;;;;;5099599;28;20036;-84
2021/08/08 10:21:25;;;;;;;1.02;0.40;;;;;;;;;;5106747;28;20017;-84
2021/08/08 10:23:55;;;;;;;0.47;0.47;;;;;;;;;;5090804;28;20032;-85
2021/08/08 10:26:22;;;;;;;1.17;0.55;;;;;;;;;;5096042;28;20036;-85
2021/08/08 10:28:49;;;;;;;0.43;0.43;;;;;;;;;;5095056;28;20031;-85
2021/08/08 10:31:17;;;;;;;1.08;0.70;;;;;;;;;;5095512;28;20051;-85
2021/08/08 10:33:47;;;;;;;0.75;0.60;;;;;;;;;;5109946;22;20017;-80
2021/08/08 10:36:21;;;;;;;0.50;0.50;;;;;;;;;;5087908;28;20102;-81
2021/08/08 10:38:47;;;;;;;3.08;0.55;;;;;;;;;;5090722;28;20035;-82
2021/08/08 10:41:13;;;;;;;2.40;0.75;;;;;;;;;;5091356;28;20024;-82
2021/08/08 10:43:44;;;;;;;1.08;0.50;;;;;;;;;;5109227;28;20152;-82
2021/08/08 10:46:10;;;;;;;2.17;0.50;;;;;;;;;;5091035;28;20025;-82
2021/08/08 10:48:37;;;;;;;0.52;0.40;;;;;;;;;;5103737;28;20031;-82
2021/08/08 10:51:17;;;;;;;1.88;0.65;;;;;;;;;;5112004;28;20057;-82
2021/08/08 10:53:44;;;;;;;0.70;0.70;;;;;;;;;;5096057;28;20036;-81
2021/08/08 10:56:12;;;;;;;0.47;0.47;;;;;;;;;;5090090;28;20035;-82
2021/08/08 10:58:41;;;;;;;0.68;0.50;;;;;;;;;;5090763;28;20032;-83
2021/08/08 11:01:17;;;;;;;1.45;0.70;;;;;;;;;;5089535;28;20028;-82
2021/08/08 11:03:53;;;;;;;0.90;0.50;;;;;;;;;;5090156;28;20284;-81
2021/08/08 11:06:22;;;;;;;2.25;0.90;;;;;;;;;;5090383;28;20025;-82
2021/08/08 11:08:52;;;;;;;1.30;0.65;;;;;;;;;;5089791;28;20036;-82
2021/08/08 11:11:22;;;;;;;1.75;0.60;;;;;;;;;;5090692;28;20029;-81
2021/08/08 11:13:52;;;;;;;0.85;0.30;;;;;;;;;;5089381;28;20016;-82
2021/08/08 11:16:18;;;;;;;1.17;0.63;;;;;;;;;;5083499;28;20025;-82
2021/08/08 11:18:53;;;;;;;0.43;0.43;;;;;;;;;;5093401;28;20043;-80
2021/08/08 11:21:19;;;;;;;0.45;0.45;;;;;;;;;;5090427;28;20024;-82
2021/08/08 11:23:45;;;;;;;0.73;0.55;;;;;;;;;;5088511;28;20264;-82
2021/08/08 11:26:16;;;;;;;0.43;0.43;;;;;;;;;;5089669;28;20028;-82
2021/08/08 11:28:42;;;;;;;0.73;0.50;;;;;;;;;;5089210;28;20065;-82
2021/08/08 11:31:17;;;;;;;0.50;0.50;;;;;;;;;;5088625;28;20028;-81
2021/08/08 11:33:47;;;;;;;1.42;0.80;;;;;;;;;;5089715;28;20024;-81
2021/08/08 11:36:13;;;;;;;0.50;0.50;;;;;;;;;;5089346;28;20141;-81
2021/08/08 11:38:42;;;;;;;1.13;0.50;;;;;;;;;;5088377;28;20029;-81
2021/08/08 11:41:08;;;;;;;0.47;0.47;;;;;;;;;;5087924;28;20036;-81
2021/08/08 11:43:34;;;;;;;1.33;1.20;;;;;;;;;;5088437;28;20056;-82
2021/08/08 11:46:02;;;;;;;0.95;0.45;;;;;;;;;;5086313;28;20028;-82
2021/08/08 11:48:30;;;;;;;2.80;0.70;;;;;;;;;;5094795;28;20024;-81
2021/08/08 11:51:00;;;;;;;1.25;0.77;;;;;;;;;;5109576;28;20054;-81
2021/08/08 11:53:32;;;;;;;1.10;0.60;;;;;;;;;;5109959;28;20031;-82
2021/08/08 11:56:10;;;;;;;0.98;0.57;;;;;;;;;;5109347;28;20027;-81
2021/08/08 11:58:43;;;;;;;0.65;0.60;;;;;;;;;;5108345;28;20028;-81
2021/08/08 12:01:11;;;;;;;1.00;0.63;;;;;;;;;;5104270;28;20107;-82
2021/08/08 12:03:38;;;;;;;0.95;0.60;;;;;;;;;;5087808;28;20032;-81
2021/08/08 12:06:04;;;;;;;0.73;0.70;;;;;;;;;;5089256;28;20392;-81
2021/08/08 12:08:30;;;;;;;1.73;0.88;;;;;;;;;;5089419;28;20103;-81
2021/08/08 12:10:57;;;;;;;1.15;0.50;;;;;;;;;;5089080;28;20055;-81
2021/08/08 12:13:24;;;;;;;0.73;0.50;;;;;;;;;;5092616;28;20070;-83
2021/08/08 12:15:50;;;;;;;1.52;0.50;;;;;;;;;;5079194;28;20029;-81
2021/08/08 12:18:26;;;;;;;1.20;0.50;;;;;;;;;;5097134;28;20020;-82
2021/08/08 12:20:52;;;;;;;2.58;0.70;;;;;;;;;;5083305;28;20032;-80
2021/08/08 12:23:24;;;;;;;1.08;0.73;;;;;;;;;;5085843;28;20028;-80
2021/08/08 12:25:57;;;;;;;1.10;0.60;;;;;;;;;;5087022;28;20044;-80
2021/08/08 12:28:23;;;;;;;2.78;0.60;;;;;;;;;;5091474;28;20017;-82
2021/08/08 12:30:50;;;;;;;1.90;0.68;;;;;;;;;;5091121;28;20052;-80
2021/08/08 12:33:17;;;;;;;2.42;0.88;;;;;;;;;;5088507;28;20036;-81
2021/08/08 12:35:44;;;;;;;1.00;0.80;;;;;;;;;;5089149;28;20032;-80
2021/08/08 12:38:16;;;;;;;2.92;0.60;;;;;;;;;;5088380;28;20043;-80
2021/08/08 12:40:48;;;;;;;1.20;0.45;;;;;;;;;;5089110;28;20048;-82
2021/08/08 12:43:14;;;;;;;;;;;;;;;;;;5090408;28;20028;-82
2021/08/08 12:45:40;;;;;;;3.15;0.70;;;;;;;;;;5088126;28;19905;-82
2021/08/08 12:48:07;;;;;;;2.45;0.47;;;;;;;;;;5079893;28;20028;-82
2021/08/08 12:50:38;;;;;;;2.28;0.55;;;;;;;;;;5109894;28;20498;-81
2021/08/08 12:53:06;;;;;;;4.03;0.83;;;;;;;;;;5104130;28;20032;-81
2021/08/08 12:55:32;;;;;;;3.38;0.63;;;;;;;;;;5093221;28;20085;-81
2021/08/08 12:57:59;;;;;;;0.65;0.63;;;;;;;;;;5091883;28;20020;-81
2021/08/08 13:00:25;;;;;;;1.95;0.57;;;;;;;;;;5092658;28;20039;-82
2021/08/08 13:02:51;;;;;;;1.25;0.70;;;;;;;;;;5092090;28;20048;-81
2021/08/08 13:05:18;;;;;;;0.90;0.60;;;;;;;;;;5092798;28;20079;-82
2021/08/08 13:07:44;;;;;;;4.97;0.93;;;;;;;;;;5092398;28;20101;-82
2021/08/08 13:10:10;;;;;;;0.95;0.50;;;;;;;;;;5092242;28;20039;-82
2021/08/08 13:12:40;;;;;;;1.52;0.80;;;;;;;;;;5091178;28;20029;-81
2021/08/08 13:15:09;;;;;;;3.08;0.80;;;;;;;;;;5093947;28;20549;-82
2021/08/08 13:17:39;;;;;;;4.20;0.73;;;;;;;;;;5101046;28;20008;-82
2021/08/08 13:20:06;;;;;;;1.35;0.52;;;;;;;;;;5107173;28;20024;-81
2021/08/08 13:22:32;;;;;;;2.05;0.75;;;;;;;;;;5110553;28;20028;-81
2021/08/08 13:24:58;;;;;;;2.13;1.00;;;;;;;;;;5100500;28;20092;-82
2021/08/08 13:27:24;;;;;;;0.60;0.60;;;;;;;;;;5091339;28;20429;-81
2021/08/08 13:29:50;;;;;;;1.23;1.05;;;;;;;;;;5091050;28;20033;-81
2021/08/08 13:32:16;;;;;;;1.15;0.90;;;;;;;;;;5092965;28;20100;-82
2021/08/08 13:34:42;;;;;;;1.52;0.80;;;;;;;;;;5094368;28;20088;-81
2021/08/08 13:37:09;;;;;;;0.98;0.50;;;;;;;;;;5093670;28;20074;-80
2021/08/08 13:39:38;;;;;;;1.33;0.85;;;;;;;;;;5094942;28;20029;-81
2021/08/08 13:42:04;;;;;;;1.83;0.85;;;;;;;;;;5095618;28;20037;-82
2021/08/08 13:44:30;;;;;;;2.35;0.80;;;;;;;;;;5095623;28;20025;-82
2021/08/08 13:46:56;;;;;;;2.15;0.90;;;;;;;;;;5099542;28;20042;-82
2021/08/08 13:49:23;;;;;;;0.98;0.70;;;;;;;;;;5104986;28;20031;-82
2021/08/08 13:51:49;;;;;;;3.10;0.75;;;;;;;;;;5112432;28;20034;-80
2021/08/08 13:54:18;;;;;;;1.35;0.88;;;;;;;;;;5112664;28;20108;-81
2021/08/08 13:56:45;;;;;;;1.00;0.73;;;;;;;;;;5090731;28;20021;-82
2021/08/08 13:59:11;;;;;;;3.22;0.63;;;;;;;;;;5091580;28;20029;-82
2021/08/08 14:01:37;;;;;;;2.03;0.73;;;;;;;;;;5091618;28;20047;-82
2021/08/08 14:04:03;;;;;;;1.30;0.60;;;;;;;;;;5090988;28;20028;-82
2021/08/08 14:06:29;;;;;;;0.88;0.70;;;;;;;;;;5090531;28;20035;-82
2021/08/08 14:08:55;;;;;;;2.00;1.10;;;;;;;;;;5092032;28;20025;-82
2021/08/08 14:11:21;;;;;;;1.10;0.98;;;;;;;;;;5091081;28;20029;-82
2021/08/08 14:13:48;;;;;;;0.90;0.68;;;;;;;;;;5089620;28;20044;-82
2021/08/08 14:16:14;;;;;;;1.52;0.73;;;;;;;;;;5091992;28;20028;-82
2021/08/08 14:18:40;;;;;;;0.55;0.50;;;;;;;;;;5101310;28;20059;-81
2021/08/08 14:21:06;;;;;;;0.60;0.50;;;;;;;;;;5109659;28;20027;-82
2021/08/08 14:23:32;;;;;;;0.60;0.60;;;;;;;;;;5108811;28;20028;-82
2021/08/08 14:25:58;;;;;;;1.52;0.63;;;;;;;;;;5104055;28;20114;-81
2021/08/08 14:28:24;;;;;;;3.42;0.80;;;;;;;;;;5090291;28;20028;-81
2021/08/08 14:30:51;;;;;;;1.15;0.85;;;;;;;;;;5090497;28;20029;-81
2021/08/08 14:33:17;;;;;;;1.70;0.80;;;;;;;;;;5090231;28;20082;-81
2021/08/08 14:35:43;;;;;;;1.77;1.02;;;;;;;;;;5089399;28;20092;-81
2021/08/08 14:38:09;;;;;;;1.60;1.02;;;;;;;;;;5092471;28;20023;-80
2021/08/08 14:40:35;;;;;;;2.58;0.88;;;;;;;;;;5092194;28;20035;-81
2021/08/08 14:43:01;;;;;;;1.10;0.77;;;;;;;;;;5091233;28;20099;-82